RLI YTYH-YBCG
Flight info
| Callsign | RLI |
|---|---|
| Flight time | N/A |
| Altitude | 3000 |
| Route | GOMOL |
| Aircraft | B222/L-SDFGRWY/S |
Departure
| Time | 2026-04-24 07:16 |
|---|---|
| Airport | Tyagarah Airport (YTYH) |
Arrival
| Time | N/A |
|---|---|
| Airport | Gold Coast Airport (YBCG) |
| Time | Latitude | Longitude | Altitude | Speed | Heading |
|---|---|---|---|---|---|
| 2026-04-24 07:11 | -28.59505 | 153.54824 | 11 ft | 0 kts | 341° |
| 2026-04-24 07:15 | -28.59506 | 153.54826 | 11 ft | 0 kts | 246° |
| 2026-04-24 07:15 | -28.59499 | 153.54826 | 13 ft | 4 kts | 273° |
| 2026-04-24 07:15 | -28.59527 | 153.54826 | 22 ft | 16 kts | 150° |
| 2026-04-24 07:16 | -28.59537 | 153.55001 | 77 ft | 56 kts | 68° |
| 2026-04-24 07:16 | -28.59254 | 153.55571 | 100 ft | 98 kts | 64° |
| 2026-04-24 07:16 | -28.58926 | 153.56288 | 221 ft | 104 kts | 64° |
| 2026-04-24 07:16 | -28.58409 | 153.56806 | 411 ft | 103 kts | 354° |
| 2026-04-24 07:17 | -28.58177 | 153.56265 | 486 ft | 83 kts | 242° |
| 2026-04-24 07:17 | -28.58410 | 153.55638 | 389 ft | 88 kts | 235° |
| 2026-04-24 07:17 | -28.58712 | 153.55027 | 335 ft | 87 kts | 236° |
| 2026-04-24 07:17 | -28.58998 | 153.54417 | 345 ft | 87 kts | 232° |
| 2026-04-24 07:18 | -28.59283 | 153.53819 | 361 ft | 87 kts | 232° |
| 2026-04-24 07:18 | -28.59694 | 153.53393 | 382 ft | 79 kts | 178° |
| 2026-04-24 07:18 | -28.60097 | 153.53766 | 351 ft | 85 kts | 101° |
| 2026-04-24 07:18 | -28.59865 | 153.54386 | 116 ft | 88 kts | 51° |
| 2026-04-24 07:19 | -28.59596 | 153.54737 | 13 ft | 22 kts | 34° |
| 2026-04-24 07:19 | -28.59587 | 153.54746 | 13 ft | 3 kts | 166° |
| 2026-04-24 07:19 | -28.59586 | 153.54744 | 11 ft | 0 kts | 127° |
| 2026-04-24 07:19 | -28.59588 | 153.54741 | 13 ft | 2 kts | 232° |
| 2026-04-24 07:20 | -28.59585 | 153.54748 | 13 ft | 2 kts | 143° |
| 2026-04-24 07:20 | -28.59584 | 153.54745 | 13 ft | 2 kts | 338° |
| 2026-04-24 07:20 | -28.59582 | 153.54745 | 12 ft | 3 kts | 9° |
| 2026-04-24 07:20 | -28.59583 | 153.54745 | 11 ft | 0 kts | 202° |
| 2026-04-24 07:22 | -28.59583 | 153.54744 | 11 ft | 0 kts | 204° |
| 2026-04-24 07:23 | -28.59581 | 153.54743 | 13 ft | 2 kts | 295° |
| 2026-04-24 07:23 | -28.59503 | 153.54837 | 11 ft | 0 kts | 334° |